createdAt,value
2023-04-16T00:00:43.086Z,93159.59
2023-04-16T00:01:39.802Z,93196.38
2023-04-16T00:02:37.079Z,93201.69
2023-04-16T00:03:34.143Z,93207.03
2023-04-16T00:04:31.231Z,93202.88
2023-04-16T00:05:28.004Z,93147.03
2023-04-16T00:06:24.672Z,93206.94
2023-04-16T00:07:21.356Z,93204.63
2023-04-16T00:08:17.943Z,93209.69
2023-04-16T00:09:14.791Z,93204.03
2023-04-16T00:10:11.453Z,93211.38
2023-04-16T00:11:08.222Z,93200.47
2023-04-16T00:12:05.092Z,93206.06
2023-04-16T00:13:01.916Z,93207.84
2023-04-16T00:13:58.530Z,93192.88
2023-04-16T00:14:55.074Z,93203.16
2023-04-16T00:15:51.649Z,93193.94
2023-04-16T00:16:48.361Z,93198.09
2023-04-16T00:17:45.212Z,93196.75
2023-04-16T00:18:41.926Z,93153.91
2023-04-16T00:19:38.682Z,93189.19
2023-04-16T00:20:35.258Z,93184.22
2023-04-16T00:21:32.159Z,93191.00
2023-04-16T00:22:28.815Z,93185.47
2023-04-16T00:23:25.515Z,93190.50
2023-04-16T00:24:22.142Z,93184.53
2023-04-16T00:25:18.824Z,93190.78
2023-04-16T00:26:16.213Z,93188.63
2023-04-16T00:27:12.851Z,93187.69
2023-04-16T00:28:11.104Z,93181.75
2023-04-16T00:29:08.229Z,93191.00
2023-04-16T00:30:06.122Z,93188.41
2023-04-16T00:31:02.982Z,93191.81
2023-04-16T00:31:59.645Z,93188.91
2023-04-16T00:32:56.567Z,93172.25
2023-04-16T00:33:53.638Z,93151.22
2023-04-16T00:34:50.224Z,93178.81
2023-04-16T00:35:47.874Z,93186.84
2023-04-16T00:36:44.469Z,93184.91
2023-04-16T00:37:41.128Z,93184.69
2023-04-16T00:38:37.660Z,93189.84
2023-04-16T00:39:34.314Z,93136.56
2023-04-16T00:40:31.056Z,93182.16
2023-04-16T00:41:27.790Z,93179.81
2023-04-16T00:42:24.464Z,93184.47
2023-04-16T00:43:23.291Z,93135.28
2023-04-16T00:44:19.914Z,93179.56
2023-04-16T00:45:16.528Z,93176.25
2023-04-16T00:46:13.257Z,93179.19
2023-04-16T00:47:10.090Z,93117.56
2023-04-16T00:48:06.812Z,93176.09
2023-04-16T00:49:04.467Z,93170.78
2023-04-16T00:50:02.947Z,93169.81
2023-04-16T00:51:01.710Z,93170.28
2023-04-16T00:51:58.447Z,93169.16
2023-04-16T00:52:56.918Z,93174.06
2023-04-16T00:53:53.632Z,93164.63
2023-04-16T00:54:50.629Z,93166.50
2023-04-16T00:55:47.272Z,93165.81
2023-04-16T00:56:44.550Z,93169.59
2023-04-16T00:57:41.290Z,93170.47
2023-04-16T00:58:39.060Z,93166.84
2023-04-16T00:59:35.875Z,93165.56
2023-04-16T01:00:32.922Z,93174.63
2023-04-16T01:01:29.539Z,93165.16
2023-04-16T01:02:26.483Z,93173.44
2023-04-16T01:03:29.079Z,93132.16
2023-04-16T01:04:26.323Z,93170.88
2023-04-16T01:05:23.442Z,93172.00
2023-04-16T01:06:20.779Z,93154.50
2023-04-16T01:07:17.720Z,93138.00
2023-04-16T01:08:21.603Z,93169.16
2023-04-16T01:09:18.298Z,93168.78
2023-04-16T01:10:14.918Z,93169.38
2023-04-16T01:11:12.211Z,93125.16
2023-04-16T01:12:08.818Z,93167.66
2023-04-16T01:13:05.745Z,93165.53
2023-04-16T01:14:02.338Z,93165.28
2023-04-16T01:14:59.184Z,93132.09
2023-04-16T01:15:56.241Z,93166.56
2023-04-16T01:16:52.863Z,93161.19
2023-04-16T01:17:49.509Z,93106.59
2023-04-16T01:18:46.332Z,93165.91
2023-04-16T01:19:43.286Z,93168.56
2023-04-16T01:20:39.833Z,93114.03
2023-04-16T01:21:36.494Z,93113.47
2023-04-16T01:22:33.078Z,93169.41
2023-04-16T01:23:30.065Z,93167.34
2023-04-16T01:24:26.778Z,93168.06
2023-04-16T01:25:23.383Z,93174.28
2023-04-16T01:26:20.083Z,93171.56
2023-04-16T01:27:16.845Z,93180.75
2023-04-16T01:28:13.802Z,93127.59
2023-04-16T01:29:10.687Z,93170.38
2023-04-16T01:30:08.181Z,93172.16
2023-04-16T01:31:04.941Z,93136.19
2023-04-16T01:32:01.539Z,93171.16
2023-04-16T01:32:58.386Z,93173.81
2023-04-16T01:33:55.090Z,93172.16
2023-04-16T01:34:51.760Z,93165.13
2023-04-16T01:35:48.540Z,93165.91
2023-04-16T01:36:45.396Z,93114.56
2023-04-16T01:37:42.021Z,93138.66
2023-04-16T01:38:38.770Z,93165.31
2023-04-16T01:39:35.672Z,93170.72
2023-04-16T01:40:32.361Z,93169.94
2023-04-16T01:41:29.010Z,93174.84
2023-04-16T01:42:25.610Z,93170.38
2023-04-16T01:43:22.264Z,93163.19
2023-04-16T01:44:18.874Z,93159.16
2023-04-16T01:45:15.723Z,93175.16
2023-04-16T01:46:20.506Z,93167.97
2023-04-16T01:47:17.357Z,93163.59
2023-04-16T01:48:13.995Z,93171.81
2023-04-16T01:49:10.879Z,93164.69
2023-04-16T01:50:08.134Z,93163.00
2023-04-16T01:51:05.204Z,93164.81
2023-04-16T01:52:01.908Z,93160.59
2023-04-16T01:52:58.619Z,93159.72
2023-04-16T01:53:55.522Z,93159.06
2023-04-16T01:54:52.570Z,93157.06
2023-04-16T01:55:49.191Z,93156.47
2023-04-16T01:56:45.826Z,93164.63
2023-04-16T01:57:42.533Z,93148.69
2023-04-16T01:58:39.840Z,93161.81
2023-04-16T01:59:36.493Z,93159.16
2023-04-16T02:00:33.684Z,93156.06
2023-04-16T02:01:30.730Z,93102.50
2023-04-16T02:02:29.344Z,93155.72
2023-04-16T02:03:26.307Z,93154.25
2023-04-16T02:04:23.017Z,93142.84
2023-04-16T02:05:19.613Z,93148.28
2023-04-16T02:06:16.476Z,93149.78
2023-04-16T02:07:13.124Z,93144.66
2023-04-16T02:08:09.699Z,93146.63
2023-04-16T02:09:06.338Z,93149.88
2023-04-16T02:10:04.785Z,93150.03
2023-04-16T02:11:01.435Z,93128.59
2023-04-16T02:11:58.169Z,93128.78
2023-04-16T02:12:54.892Z,93144.91
2023-04-16T02:13:51.520Z,93150.34
2023-04-16T02:14:48.134Z,93147.69
2023-04-16T02:15:49.151Z,93139.38
2023-04-16T02:16:45.770Z,93140.66
2023-04-16T02:17:42.463Z,93137.44
2023-04-16T02:18:39.139Z,93145.00
2023-04-16T02:19:35.986Z,93139.25
2023-04-16T02:20:32.639Z,93145.13
2023-04-16T02:21:29.270Z,93137.53
2023-04-16T02:22:25.945Z,93130.69
2023-04-16T02:23:22.519Z,93136.34
2023-04-16T02:24:20.237Z,93133.25
2023-04-16T02:25:16.968Z,93132.91
2023-04-16T02:26:13.845Z,93133.34
2023-04-16T02:27:10.482Z,93132.56
2023-04-16T02:28:08.978Z,93132.06
2023-04-16T02:29:05.869Z,93028.16
2023-04-16T02:30:04.320Z,93142.00
2023-04-16T02:31:00.921Z,93112.03
2023-04-16T02:31:57.873Z,93136.09
2023-04-16T02:32:54.527Z,93141.41
2023-04-16T02:33:51.161Z,93146.72
2023-04-16T02:34:47.727Z,93139.53
2023-04-16T02:35:44.304Z,93139.94
2023-04-16T02:36:41.525Z,93131.63
2023-04-16T02:37:40.794Z,93135.56
2023-04-16T02:38:37.708Z,93140.09
2023-04-16T02:39:34.327Z,93059.69
2023-04-16T02:40:32.074Z,93135.38
2023-04-16T02:41:28.759Z,93097.25
2023-04-16T02:42:25.360Z,93136.47
2023-04-16T02:43:22.062Z,93134.69
2023-04-16T02:44:18.695Z,93141.91
2023-04-16T02:45:15.785Z,93135.47
2023-04-16T02:46:12.571Z,93131.00
2023-04-16T02:47:09.279Z,93122.25
2023-04-16T02:48:07.345Z,93102.13
2023-04-16T02:49:04.034Z,93134.38
2023-04-16T02:50:00.757Z,93136.00
2023-04-16T02:50:57.360Z,93136.16
2023-04-16T02:51:53.933Z,93134.00
2023-04-16T02:52:51.596Z,93101.28
2023-04-16T02:53:48.190Z,93131.34
2023-04-16T02:54:44.733Z,93121.44
2023-04-16T02:55:41.370Z,93133.94
2023-04-16T02:56:37.946Z,93134.00
2023-04-16T02:57:35.215Z,93096.84
2023-04-16T02:58:31.871Z,93134.63
2023-04-16T02:59:28.531Z,93128.88
2023-04-16T03:00:25.142Z,93077.75
2023-04-16T03:01:21.772Z,93095.63
2023-04-16T03:02:18.402Z,93115.75
2023-04-16T03:03:15.133Z,93134.19
2023-04-16T03:04:11.853Z,93128.88
2023-04-16T03:05:09.120Z,93087.00
2023-04-16T03:06:05.838Z,93129.13
2023-04-16T03:07:02.435Z,93126.69
2023-04-16T03:07:59.023Z,93132.19
2023-04-16T03:08:55.906Z,93089.19
2023-04-16T03:09:52.565Z,93124.25
2023-04-16T03:10:49.166Z,93123.59
2023-04-16T03:11:45.803Z,93119.06
2023-04-16T03:12:42.396Z,93121.47
2023-04-16T03:13:39.010Z,93127.16
2023-04-16T03:14:35.746Z,93120.69
2023-04-16T03:15:32.418Z,93122.59
2023-04-16T03:16:28.962Z,93125.25
2023-04-16T03:17:25.697Z,93127.38
2023-04-16T03:18:22.405Z,93133.75
2023-04-16T03:19:19.100Z,93128.31
2023-04-16T03:20:17.396Z,93125.66
2023-04-16T03:21:13.988Z,93126.09
2023-04-16T03:22:10.517Z,93128.75
2023-04-16T03:23:07.136Z,93130.88
2023-04-16T03:24:03.800Z,93116.56
2023-04-16T03:25:00.441Z,93136.75
2023-04-16T03:25:57.016Z,93137.72
2023-04-16T03:26:53.606Z,93138.97
2023-04-16T03:27:50.753Z,93102.81
2023-04-16T03:28:47.320Z,93145.31
2023-04-16T03:29:43.947Z,93145.84
2023-04-16T03:30:40.577Z,93142.31
2023-04-16T03:31:37.192Z,93139.66
2023-04-16T03:32:33.891Z,93137.16
2023-04-16T03:33:30.783Z,93141.00
2023-04-16T03:34:27.431Z,93146.03
2023-04-16T03:35:24.010Z,93106.56
2023-04-16T03:36:20.939Z,93142.22
2023-04-16T03:37:17.674Z,93151.06
2023-04-16T03:38:14.315Z,93145.72
2023-04-16T03:39:11.193Z,93142.41
2023-04-16T03:40:08.564Z,93139.69
2023-04-16T03:41:05.184Z,93139.81
2023-04-16T03:42:02.408Z,93133.13
2023-04-16T03:42:59.015Z,93143.47
2023-04-16T03:43:55.606Z,93146.28
2023-04-16T03:44:53.684Z,93145.81
2023-04-16T03:45:50.335Z,93151.69
2023-04-16T03:46:47.024Z,93151.44
2023-04-16T03:47:43.722Z,93141.31
2023-04-16T03:48:40.388Z,93141.66
2023-04-16T03:49:37.025Z,93146.78
2023-04-16T03:50:33.759Z,93140.03
2023-04-16T03:51:30.972Z,93146.47
2023-04-16T03:52:28.241Z,93146.53
2023-04-16T03:53:24.881Z,93143.53
2023-04-16T03:54:22.796Z,93143.81
2023-04-16T03:55:19.739Z,93144.03
2023-04-16T03:56:16.303Z,93144.28
2023-04-16T03:57:12.958Z,93141.03
2023-04-16T03:58:10.054Z,93142.56
2023-04-16T03:59:06.780Z,93146.13
2023-04-16T04:00:04.317Z,93148.91
2023-04-16T04:01:01.229Z,93146.41
2023-04-16T04:01:57.870Z,93145.91
2023-04-16T04:02:54.687Z,93146.41
2023-04-16T04:03:51.594Z,93148.47
2023-04-16T04:04:48.571Z,93130.78
2023-04-16T04:05:45.395Z,93105.75
2023-04-16T04:06:42.097Z,93152.19
2023-04-16T04:07:38.795Z,93148.69
2023-04-16T04:08:35.663Z,93153.84
2023-04-16T04:09:34.018Z,93146.75
2023-04-16T04:10:33.108Z,93149.81
2023-04-16T04:11:29.699Z,93150.28
2023-04-16T04:12:26.362Z,93159.81
2023-04-16T04:13:23.057Z,93154.16
2023-04-16T04:14:19.622Z,93161.78
2023-04-16T04:15:16.411Z,93163.03
2023-04-16T04:16:13.030Z,93162.44
2023-04-16T04:17:09.642Z,93164.91
2023-04-16T04:18:06.280Z,93159.53
2023-04-16T04:19:02.936Z,93162.28
2023-04-16T04:20:01.402Z,93159.97
2023-04-16T04:20:58.678Z,93178.81
2023-04-16T04:21:55.418Z,93159.50
2023-04-16T04:22:52.033Z,93168.41
2023-04-16T04:23:48.674Z,93136.72
2023-04-16T04:24:45.366Z,93119.81
2023-04-16T04:25:41.956Z,93160.06
2023-04-16T04:26:38.538Z,93167.19
2023-04-16T04:27:35.138Z,93149.00
2023-04-16T04:28:32.540Z,93167.50
2023-04-16T04:29:29.287Z,93174.91
2023-04-16T04:30:25.954Z,93171.13
2023-04-16T04:31:22.728Z,93167.22
2023-04-16T04:32:19.378Z,93134.47
2023-04-16T04:33:16.020Z,93179.63
2023-04-16T04:34:12.628Z,93173.88
2023-04-16T04:35:09.635Z,93182.69
2023-04-16T04:36:06.857Z,93184.44
2023-04-16T04:37:03.503Z,93179.06
2023-04-16T04:38:01.881Z,93182.53
2023-04-16T04:38:59.210Z,93178.09
2023-04-16T04:39:56.266Z,93184.19
2023-04-16T04:40:53.101Z,93175.13
2023-04-16T04:41:49.794Z,93181.66
2023-04-16T04:42:46.527Z,93153.41
2023-04-16T04:43:43.191Z,93186.47
2023-04-16T04:44:39.779Z,93189.06
2023-04-16T04:45:36.471Z,93184.88
2023-04-16T04:46:33.126Z,93175.28
2023-04-16T04:47:29.768Z,93194.13
2023-04-16T04:48:27.635Z,93191.22
2023-04-16T04:49:24.226Z,93186.91
2023-04-16T04:50:21.758Z,93059.16
2023-04-16T04:51:18.368Z,93177.91
2023-04-16T04:52:15.000Z,93192.00
2023-04-16T04:53:12.119Z,93193.63
2023-04-16T04:54:08.805Z,93184.78
2023-04-16T04:55:06.144Z,93178.72
2023-04-16T04:56:12.224Z,93190.81
2023-04-16T04:57:09.540Z,93192.78
2023-04-16T04:58:07.287Z,93186.63
2023-04-16T04:59:04.252Z,93185.66
2023-04-16T05:00:03.342Z,93181.34
2023-04-16T05:00:59.984Z,93156.63
2023-04-16T05:01:56.767Z,93189.06
2023-04-16T05:02:53.571Z,93188.09
2023-04-16T05:03:50.470Z,93184.28
2023-04-16T05:04:47.179Z,93181.66
2023-04-16T05:05:43.811Z,93188.78
2023-04-16T05:06:40.676Z,93189.00
2023-04-16T05:07:37.234Z,93188.44
2023-04-16T05:08:33.949Z,93190.00
2023-04-16T05:09:30.865Z,93189.75
2023-04-16T05:10:27.579Z,93190.53
2023-04-16T05:11:24.243Z,93181.16
2023-04-16T05:12:20.858Z,93182.69
2023-04-16T05:13:17.477Z,93192.06
2023-04-16T05:14:14.026Z,93189.72
2023-04-16T05:15:11.041Z,93180.38
2023-04-16T05:16:07.882Z,93089.00
2023-04-16T05:17:04.582Z,93191.75
2023-04-16T05:18:01.396Z,93187.13
2023-04-16T05:18:58.234Z,93194.44
2023-04-16T05:19:54.789Z,93183.78
2023-04-16T05:20:51.385Z,93152.94
2023-04-16T05:21:48.010Z,93193.72
2023-04-16T05:22:44.554Z,93198.06
2023-04-16T05:23:41.146Z,93188.94
2023-04-16T05:24:37.713Z,93163.81
2023-04-16T05:25:34.371Z,93193.44
2023-04-16T05:26:31.056Z,93193.44
2023-04-16T05:27:27.674Z,93187.47
2023-04-16T05:28:24.298Z,93184.31
2023-04-16T05:29:20.973Z,93194.16
2023-04-16T05:30:17.663Z,93191.31
2023-04-16T05:31:14.404Z,93153.16
2023-04-16T05:32:11.100Z,93115.16
2023-04-16T05:33:07.694Z,93192.47
2023-04-16T05:34:04.254Z,93189.69
2023-04-16T05:35:00.869Z,93185.97
2023-04-16T05:35:57.504Z,93191.69
2023-04-16T05:36:54.060Z,93192.09
2023-04-16T05:37:50.713Z,93203.09
2023-04-16T05:38:47.319Z,93193.59
2023-04-16T05:39:43.904Z,93186.34
2023-04-16T05:40:40.450Z,93190.66
2023-04-16T05:41:37.081Z,93183.16
2023-04-16T05:42:33.647Z,93193.94
2023-04-16T05:43:30.262Z,93190.50
2023-04-16T05:44:26.864Z,93193.56
2023-04-16T05:45:23.901Z,93188.03
2023-04-16T05:46:21.196Z,93198.00
2023-04-16T05:47:17.950Z,93191.72
2023-04-16T05:48:14.686Z,93188.94
2023-04-16T05:49:11.642Z,93190.75
2023-04-16T05:50:08.899Z,93191.47
2023-04-16T05:51:05.722Z,93188.53
2023-04-16T05:52:02.817Z,93186.22
2023-04-16T05:52:59.413Z,93194.22
2023-04-16T05:53:56.043Z,93190.06
2023-04-16T05:54:52.649Z,93070.16
2023-04-16T05:55:49.225Z,93192.56
2023-04-16T05:56:45.854Z,93192.00
2023-04-16T05:57:42.397Z,93191.03
2023-04-16T05:58:39.065Z,93189.19
2023-04-16T05:59:35.717Z,93189.31
2023-04-16T06:00:35.484Z,93192.31
2023-04-16T06:01:34.300Z,93188.22
2023-04-16T06:02:31.698Z,93188.59
2023-04-16T06:03:28.566Z,93186.44
2023-04-16T06:04:25.323Z,93185.09
2023-04-16T06:05:22.015Z,93192.53
2023-04-16T06:06:18.677Z,93187.13
2023-04-16T06:07:15.393Z,93179.72
2023-04-16T06:08:12.120Z,93177.66
2023-04-16T06:09:09.037Z,93183.63
2023-04-16T06:10:06.340Z,93182.97
2023-04-16T06:11:03.805Z,93182.56
2023-04-16T06:12:01.229Z,93174.97
2023-04-16T06:12:57.832Z,93181.97
2023-04-16T06:13:54.466Z,93187.97
2023-04-16T06:14:51.133Z,93181.56
2023-04-16T06:15:48.095Z,93179.84
2023-04-16T06:16:44.699Z,93172.03
2023-04-16T06:17:41.814Z,93183.16
2023-04-16T06:18:38.452Z,93153.50
2023-04-16T06:19:35.100Z,93184.09
2023-04-16T06:20:31.970Z,93181.44
2023-04-16T06:21:29.111Z,93175.97
2023-04-16T06:22:25.886Z,93184.56
2023-04-16T06:23:22.677Z,93178.72
2023-04-16T06:24:19.568Z,93179.09
2023-04-16T06:25:18.119Z,93184.16
2023-04-16T06:26:14.871Z,93180.94
2023-04-16T06:27:11.445Z,93191.09
2023-04-16T06:28:08.039Z,93184.41
2023-04-16T06:29:04.783Z,93188.97
2023-04-16T06:30:01.442Z,93179.47
2023-04-16T06:30:58.178Z,93188.59
2023-04-16T06:31:55.649Z,93184.06
2023-04-16T06:32:53.423Z,93125.97
2023-04-16T06:33:50.221Z,93182.63
2023-04-16T06:34:47.042Z,93183.75
2023-04-16T06:35:43.625Z,93185.41
2023-04-16T06:36:40.452Z,93188.34
2023-04-16T06:37:37.177Z,93182.34
2023-04-16T06:38:33.787Z,93162.56
2023-04-16T06:39:30.962Z,93154.50
2023-04-16T06:40:27.826Z,93184.25
2023-04-16T06:41:26.698Z,93189.34
2023-04-16T06:42:23.499Z,93190.28
2023-04-16T06:43:20.229Z,93182.63
2023-04-16T06:44:16.926Z,93182.69
2023-04-16T06:45:14.089Z,93193.94
2023-04-16T06:46:11.109Z,93178.81
2023-04-16T06:47:08.357Z,93181.22
2023-04-16T06:48:05.565Z,93135.09
2023-04-16T06:49:02.317Z,93185.84
2023-04-16T06:49:58.942Z,93184.78
2023-04-16T06:50:56.349Z,93193.63
2023-04-16T06:51:52.985Z,93192.50
2023-04-16T06:52:49.557Z,93188.53
2023-04-16T06:53:46.241Z,93190.06
2023-04-16T06:54:42.898Z,93189.34
2023-04-16T06:55:39.479Z,93187.28
2023-04-16T06:56:37.490Z,93142.44
2023-04-16T06:57:36.203Z,93190.66
2023-04-16T06:58:34.105Z,93190.59
2023-04-16T06:59:30.927Z,93180.38
2023-04-16T07:00:27.575Z,93188.53
2023-04-16T07:01:24.431Z,93183.94
2023-04-16T07:02:21.395Z,93189.34
2023-04-16T07:03:18.170Z,93145.22
2023-04-16T07:04:15.061Z,93193.97
2023-04-16T07:05:11.838Z,93197.44
2023-04-16T07:06:08.433Z,93186.88
2023-04-16T07:07:05.060Z,93185.53
2023-04-16T07:08:01.957Z,93187.91
2023-04-16T07:08:58.576Z,93189.06
2023-04-16T07:09:55.188Z,93185.00
2023-04-16T07:10:53.861Z,93169.25
2023-04-16T07:11:50.750Z,93187.97
2023-04-16T07:12:47.374Z,93187.56
2023-04-16T07:13:43.988Z,93197.25
2023-04-16T07:14:41.151Z,93190.75
2023-04-16T07:15:37.828Z,93193.16
2023-04-16T07:16:34.555Z,93161.91
2023-04-16T07:17:31.203Z,93194.59
2023-04-16T07:18:27.853Z,93190.06
2023-04-16T07:19:24.488Z,93187.06
2023-04-16T07:20:21.476Z,93203.63
2023-04-16T07:21:18.130Z,93184.44
2023-04-16T07:22:14.799Z,93186.38
2023-04-16T07:23:11.644Z,93140.75
2023-04-16T07:24:08.255Z,93192.53
2023-04-16T07:25:05.088Z,93174.13
2023-04-16T07:26:01.705Z,93178.34
2023-04-16T07:26:58.469Z,93203.28
2023-04-16T07:27:55.147Z,93181.41
2023-04-16T07:28:51.723Z,93165.69
2023-04-16T07:29:50.330Z,93179.47
2023-04-16T07:30:46.969Z,93182.53
2023-04-16T07:31:43.640Z,93154.94
2023-04-16T07:32:40.449Z,93180.22
2023-04-16T07:33:37.086Z,93186.00
2023-04-16T07:34:33.698Z,93182.91
2023-04-16T07:35:31.104Z,93186.75
2023-04-16T07:36:28.476Z,93156.88
2023-04-16T07:37:25.013Z,93185.63
2023-04-16T07:38:21.667Z,93182.94
2023-04-16T07:39:18.380Z,93182.94
2023-04-16T07:40:15.294Z,93182.53
2023-04-16T07:41:12.884Z,93179.09
2023-04-16T07:42:09.703Z,93158.03
2023-04-16T07:43:06.778Z,93189.09
2023-04-16T07:44:03.792Z,93186.78
2023-04-16T07:45:00.371Z,93186.03
2023-04-16T07:45:57.001Z,93190.97
2023-04-16T07:46:53.712Z,93170.97
2023-04-16T07:47:50.515Z,93200.97
2023-04-16T07:48:47.352Z,93156.47
2023-04-16T07:49:44.188Z,93188.94
2023-04-16T07:50:43.642Z,93186.34
2023-04-16T07:51:40.628Z,93197.13
2023-04-16T07:52:38.885Z,93197.16
2023-04-16T07:53:35.659Z,93193.31
2023-04-16T07:54:32.401Z,93195.53
2023-04-16T07:55:28.985Z,93194.81
2023-04-16T07:56:25.961Z,93187.50
2023-04-16T07:57:22.628Z,93194.81
2023-04-16T07:58:19.229Z,93191.75
2023-04-16T07:59:22.511Z,93184.84
2023-04-16T08:00:20.458Z,93193.50
2023-04-16T08:01:17.183Z,93176.31
2023-04-16T08:02:16.717Z,93190.09
2023-04-16T08:03:13.612Z,93194.19
2023-04-16T08:04:10.497Z,93191.84
2023-04-16T08:05:07.892Z,93186.47
2023-04-16T08:06:04.546Z,93187.09
2023-04-16T08:07:01.154Z,93193.75
2023-04-16T08:07:57.732Z,93195.47
2023-04-16T08:08:54.339Z,93197.31
2023-04-16T08:09:52.237Z,93167.03
2023-04-16T08:10:48.853Z,93188.94
2023-04-16T08:11:45.647Z,93184.59
2023-04-16T08:12:42.281Z,93193.81
2023-04-16T08:13:38.970Z,93190.56
2023-04-16T08:14:35.636Z,93188.38
2023-04-16T08:15:32.467Z,93175.97
2023-04-16T08:16:29.096Z,93191.50
2023-04-16T08:17:26.243Z,93189.44
2023-04-16T08:18:23.009Z,93188.69
2023-04-16T08:19:19.766Z,93189.81
2023-04-16T08:20:19.064Z,93189.81
2023-04-16T08:21:16.029Z,93192.13
2023-04-16T08:22:13.524Z,93148.38
2023-04-16T08:23:10.199Z,93188.22
2023-04-16T08:24:07.118Z,93184.06
2023-04-16T08:25:04.560Z,93163.63
2023-04-16T08:26:02.142Z,93168.81
2023-04-16T08:27:08.042Z,93183.50
2023-04-16T08:28:14.189Z,93180.47
2023-04-16T08:29:11.088Z,93129.56
2023-04-16T08:30:08.312Z,93187.25
2023-04-16T08:31:04.976Z,93180.63
2023-04-16T08:32:01.630Z,93183.41
2023-04-16T08:32:58.378Z,93181.88
2023-04-16T08:33:55.150Z,93189.72
2023-04-16T08:34:51.806Z,93180.13
2023-04-16T08:35:48.472Z,93148.44
2023-04-16T08:36:46.099Z,93144.19
2023-04-16T08:37:42.688Z,93178.53
2023-04-16T08:38:39.259Z,93177.78
2023-04-16T08:39:36.151Z,93151.16
2023-04-16T08:40:34.984Z,93171.22
2023-04-16T08:41:32.730Z,93171.16
2023-04-16T08:42:32.564Z,93174.69
2023-04-16T08:43:34.395Z,93174.75
2023-04-16T08:44:37.822Z,93168.75
2023-04-16T08:45:35.537Z,93167.44
2023-04-16T08:46:36.143Z,93165.00
2023-04-16T08:47:35.876Z,93130.84
2023-04-16T08:48:33.988Z,93168.41
2023-04-16T08:49:36.114Z,93164.09
2023-04-16T08:50:34.898Z,93170.28
2023-04-16T08:51:35.201Z,93168.19
2023-04-16T08:52:32.656Z,93166.41
2023-04-16T08:53:37.556Z,93145.50
2023-04-16T08:54:57.380Z,93162.75
2023-04-16T08:56:03.456Z,93156.09
2023-04-16T08:57:00.576Z,93121.34
2023-04-16T08:58:01.526Z,93167.53
2023-04-16T08:58:58.610Z,93169.34
2023-04-16T08:59:56.480Z,93171.88
2023-04-16T09:00:54.358Z,93165.38
2023-04-16T09:01:52.416Z,93157.81
2023-04-16T09:02:50.503Z,93115.34
2023-04-16T09:03:48.470Z,93170.44
2023-04-16T09:04:45.482Z,93175.94
2023-04-16T09:05:43.065Z,93150.28
2023-04-16T09:06:42.313Z,93133.09
2023-04-16T09:07:39.409Z,93150.44
2023-04-16T09:08:36.697Z,93146.84
2023-04-16T09:09:34.701Z,93146.25
2023-04-16T09:10:31.485Z,93095.53
2023-04-16T09:11:28.182Z,93139.91
2023-04-16T09:12:25.995Z,93146.31
2023-04-16T09:13:23.545Z,93114.69
2023-04-16T09:14:20.590Z,93121.38
2023-04-16T09:15:17.247Z,93153.16
2023-04-16T09:16:14.875Z,93147.13
2023-04-16T09:17:14.112Z,93145.56
2023-04-16T09:18:12.117Z,93144.19
2023-04-16T09:19:09.032Z,93154.00
2023-04-16T09:20:09.015Z,93142.88
2023-04-16T09:21:07.712Z,93161.41
2023-04-16T09:22:04.344Z,93145.31
2023-04-16T09:23:00.991Z,93133.13
2023-04-16T09:23:58.422Z,93146.78
2023-04-16T09:24:55.137Z,93118.88
2023-04-16T09:25:51.796Z,93144.56
2023-04-16T09:26:50.452Z,93150.72
2023-04-16T09:27:50.321Z,93149.84
2023-04-16T09:28:50.909Z,93145.28
2023-04-16T09:29:47.605Z,93105.72
2023-04-16T09:30:44.204Z,93104.63
2023-04-16T09:31:40.866Z,93141.59
2023-04-16T09:32:37.518Z,93138.28
2023-04-16T09:33:35.028Z,93136.97
2023-04-16T09:34:36.234Z,93141.09
2023-04-16T09:35:52.335Z,93138.13
2023-04-16T09:36:48.953Z,93115.38
2023-04-16T09:37:56.894Z,93135.47
2023-04-16T09:39:07.631Z,93117.03
2023-04-16T09:40:05.442Z,93141.19
2023-04-16T09:41:08.936Z,93144.78
2023-04-16T09:42:06.290Z,93136.56
2023-04-16T09:43:11.154Z,93142.09
2023-04-16T09:44:07.801Z,93141.69
2023-04-16T09:45:05.895Z,93140.78
2023-04-16T09:46:08.073Z,93143.53
2023-04-16T09:47:09.665Z,93145.81
2023-04-16T09:48:06.703Z,93140.38
2023-04-16T09:49:21.621Z,93118.53
2023-04-16T09:50:20.319Z,93135.31
2023-04-16T09:51:17.045Z,93123.84
2023-04-16T09:52:19.101Z,93132.25
2023-04-16T09:53:25.246Z,93133.88
2023-04-16T09:54:21.886Z,93127.34
2023-04-16T09:55:23.955Z,93124.81
2023-04-16T09:56:27.919Z,93121.78
2023-04-16T09:57:25.174Z,93130.75
2023-04-16T09:58:24.600Z,93126.06
2023-04-16T09:59:22.197Z,93122.88
2023-04-16T10:00:19.505Z,93083.84
2023-04-16T10:01:18.436Z,93087.28
2023-04-16T10:02:16.590Z,93123.38
2023-04-16T10:03:13.534Z,93129.66
2023-04-16T10:04:10.409Z,93077.56
2023-04-16T10:05:07.364Z,93124.50
2023-04-16T10:06:18.096Z,93125.53
2023-04-16T10:07:15.034Z,93080.72
2023-04-16T10:08:13.156Z,93103.66
2023-04-16T10:09:11.132Z,93122.19
2023-04-16T10:10:08.572Z,93119.00
2023-04-16T10:11:05.564Z,93122.28
2023-04-16T10:12:02.366Z,93125.75
2023-04-16T10:12:59.127Z,93115.16
2023-04-16T10:13:55.850Z,93118.38
2023-04-16T10:14:52.477Z,93122.81
2023-04-16T10:15:50.384Z,93113.81
2023-04-16T10:16:47.617Z,93118.59
2023-04-16T10:17:44.462Z,93099.59
2023-04-16T10:18:42.924Z,93085.44
2023-04-16T10:19:40.020Z,93117.47
2023-04-16T10:20:37.562Z,93080.16
2023-04-16T10:21:34.567Z,93114.63
2023-04-16T10:22:31.534Z,93098.81
2023-04-16T10:23:28.319Z,93106.59
2023-04-16T10:24:25.825Z,93093.41
2023-04-16T10:25:23.657Z,93020.31
2023-04-16T10:26:21.737Z,93107.34
2023-04-16T10:27:19.678Z,93107.09
2023-04-16T10:28:16.804Z,93105.97
2023-04-16T10:29:13.567Z,93107.78
2023-04-16T10:30:11.756Z,93112.63
2023-04-16T10:31:09.650Z,93095.06
2023-04-16T10:32:06.622Z,93109.47
2023-04-16T10:33:05.291Z,93089.22
2023-04-16T10:34:03.462Z,93059.66
2023-04-16T10:35:00.211Z,93095.59
2023-04-16T10:36:17.224Z,93093.34
2023-04-16T10:37:18.019Z,93060.16
2023-04-16T10:38:28.344Z,93071.47
2023-04-16T10:39:29.266Z,93056.56
2023-04-16T10:40:27.514Z,93093.66
2023-04-16T10:41:26.815Z,93082.34
2023-04-16T10:42:23.615Z,93097.34
2023-04-16T10:43:21.020Z,93107.88
2023-04-16T10:44:19.470Z,93097.94
2023-04-16T10:45:16.793Z,93093.41
2023-04-16T10:46:46.429Z,93100.69
2023-04-16T10:47:43.312Z,93098.22
2023-04-16T10:48:49.830Z,93100.47
2023-04-16T10:49:48.240Z,93075.47
2023-04-16T10:50:57.074Z,93100.97
2023-04-16T10:52:07.411Z,93106.66
2023-04-16T10:53:28.050Z,93098.19
2023-04-16T10:54:29.463Z,93103.84
2023-04-16T10:55:26.751Z,93099.94
2023-04-16T10:56:27.849Z,93095.03
2023-04-16T10:57:29.274Z,93097.50
2023-04-16T10:58:34.983Z,93093.59
2023-04-16T10:59:36.593Z,93100.41
2023-04-16T11:00:49.159Z,93099.06
2023-04-16T11:01:48.785Z,93100.72
2023-04-16T11:02:45.888Z,93091.28
2023-04-16T11:03:44.440Z,93093.81
2023-04-16T11:04:44.358Z,93088.66
2023-04-16T11:05:47.141Z,93084.19
2023-04-16T11:07:00.060Z,93090.66
2023-04-16T11:07:56.671Z,93091.44
2023-04-16T11:08:55.308Z,93071.34
2023-04-16T11:10:00.667Z,93091.72
2023-04-16T11:10:58.847Z,93091.28
2023-04-16T11:11:55.753Z,93086.75
2023-04-16T11:12:53.752Z,93089.28
2023-04-16T11:13:55.875Z,93082.34
2023-04-16T11:14:54.695Z,93078.38
2023-04-16T11:15:51.534Z,93080.22
2023-04-16T11:16:48.862Z,93066.53
2023-04-16T11:17:52.004Z,93071.34